createdAt,value
2023-01-21T00:01:19.900Z,32.25
2023-01-21T00:03:48.082Z,47.33
2023-01-21T00:06:16.448Z,36.63
2023-01-21T00:08:44.939Z,30.25
2023-01-21T00:11:14.670Z,35.38
2023-01-21T00:13:43.968Z,39.28
2023-01-21T00:16:13.205Z,41.85
2023-01-21T00:18:42.677Z,41.03
2023-01-21T00:21:10.834Z,49.72
2023-01-21T00:23:38.857Z,39.67
2023-01-21T00:26:08.986Z,45.00
2023-01-21T00:28:38.359Z,62.60
2023-01-21T00:31:09.014Z,47.30
2023-01-21T00:33:38.128Z,45.08
2023-01-21T00:36:10.045Z,46.88
2023-01-21T00:38:38.486Z,58.53
2023-01-21T00:41:07.975Z,50.33
2023-01-21T00:43:36.563Z,54.15
2023-01-21T00:46:04.809Z,51.72
2023-01-21T00:48:33.512Z,37.70
2023-01-21T00:51:01.799Z,52.05
2023-01-21T00:53:33.437Z,49.63
2023-01-21T00:56:03.358Z,45.60
2023-01-21T00:58:31.792Z,49.80
2023-01-21T01:01:04.064Z,56.25
2023-01-21T01:03:32.731Z,51.80
2023-01-21T01:06:05.113Z,74.18
2023-01-21T01:08:34.832Z,72.72
2023-01-21T01:11:03.454Z,71.72
2023-01-21T01:13:32.112Z,55.15
2023-01-21T01:16:01.663Z,66.78
2023-01-21T01:18:32.527Z,61.05
2023-01-21T01:21:01.195Z,59.45
2023-01-21T01:23:29.272Z,76.25
2023-01-21T01:26:00.608Z,62.10
2023-01-21T01:28:29.096Z,65.93
2023-01-21T01:30:57.616Z,52.47
2023-01-21T01:33:26.615Z,55.65
2023-01-21T01:35:55.127Z,59.95
2023-01-21T01:38:24.554Z,63.50
2023-01-21T01:40:53.697Z,57.60
2023-01-21T01:43:25.743Z,56.75
2023-01-21T01:45:54.749Z,48.58
2023-01-21T01:48:27.432Z,46.42
2023-01-21T01:51:02.170Z,60.25
2023-01-21T01:53:33.025Z,65.68
2023-01-21T01:56:02.577Z,61.33
2023-01-21T01:58:33.293Z,52.70
2023-01-21T02:01:01.625Z,59.13
2023-01-21T02:03:50.788Z,58.55
2023-01-21T02:06:20.112Z,51.25
2023-01-21T02:08:48.945Z,57.83
2023-01-21T02:11:19.003Z,52.70
2023-01-21T02:13:54.230Z,38.95
2023-01-21T02:16:41.909Z,52.83
2023-01-21T02:20:00.530Z,55.97
2023-01-21T02:22:32.803Z,43.25
2023-01-21T02:25:29.939Z,48.22
2023-01-21T02:28:25.039Z,91.85
2023-01-21T02:31:19.606Z,48.28
2023-01-21T02:34:06.944Z,49.25
2023-01-21T02:36:46.313Z,49.42
2023-01-21T02:39:25.717Z,44.67
2023-01-21T02:42:07.003Z,24.95
2023-01-21T02:44:40.170Z,33.42
2023-01-21T02:47:16.987Z,39.72
2023-01-21T02:49:51.911Z,36.90
2023-01-21T02:52:22.098Z,34.03
2023-01-21T02:54:53.137Z,33.10
2023-01-21T02:57:31.587Z,29.60
2023-01-21T03:00:01.320Z,33.58
2023-01-21T03:02:47.543Z,28.70
2023-01-21T03:05:25.919Z,46.65
2023-01-21T03:08:01.728Z,35.40
2023-01-21T03:10:35.284Z,33.10
2023-01-21T03:13:06.709Z,37.95
2023-01-21T03:15:57.723Z,27.70
2023-01-21T03:18:30.766Z,28.50
2023-01-21T03:21:05.131Z,24.25
2023-01-21T03:23:36.378Z,23.02
2023-01-21T03:26:07.988Z,28.20
2023-01-21T03:28:40.004Z,27.48
2023-01-21T03:31:13.428Z,28.15
2023-01-21T03:33:46.888Z,139.98
2023-01-21T03:36:24.729Z,75.35
2023-01-21T03:38:56.154Z,32.05
2023-01-21T03:41:32.091Z,23.58
2023-01-21T03:44:00.384Z,21.95
2023-01-21T03:46:37.083Z,27.00
2023-01-21T03:49:08.273Z,26.70
2023-01-21T03:51:41.011Z,32.30
2023-01-21T03:54:09.033Z,26.40
2023-01-21T03:56:37.055Z,26.50
2023-01-21T03:59:05.038Z,32.00
2023-01-21T04:01:33.051Z,30.10
2023-01-21T04:04:01.008Z,36.20
2023-01-21T04:06:29.025Z,30.23
2023-01-21T04:08:58.371Z,23.67
2023-01-21T04:11:26.417Z,30.25
2023-01-21T04:13:57.300Z,29.23
2023-01-21T04:16:25.411Z,29.55
2023-01-21T04:18:54.046Z,28.45
2023-01-21T04:21:22.121Z,28.40
2023-01-21T04:23:50.192Z,30.23
2023-01-21T04:26:19.583Z,30.48
2023-01-21T04:28:47.551Z,23.52
2023-01-21T04:31:16.650Z,33.97
2023-01-21T04:33:44.651Z,30.20
2023-01-21T04:36:12.689Z,30.38
2023-01-21T04:38:40.678Z,32.40
2023-01-21T04:41:08.740Z,28.05
2023-01-21T04:43:38.068Z,28.50
2023-01-21T04:46:06.463Z,33.33
2023-01-21T04:48:34.483Z,38.47
2023-01-21T04:51:02.918Z,28.67
2023-01-21T04:53:30.971Z,37.80
2023-01-21T04:55:59.175Z,44.63
2023-01-21T04:58:27.579Z,30.65
2023-01-21T05:00:57.127Z,34.08
2023-01-21T05:03:25.157Z,36.60
2023-01-21T05:05:53.171Z,35.63
2023-01-21T05:08:21.198Z,42.53
2023-01-21T05:10:49.226Z,29.25
2023-01-21T05:13:17.216Z,38.50
2023-01-21T05:15:45.313Z,44.97
2023-01-21T05:18:14.696Z,51.50
2023-01-21T05:20:42.746Z,38.67
2023-01-21T05:23:10.730Z,50.47
2023-01-21T05:25:38.796Z,58.72
2023-01-21T05:28:06.785Z,31.35
2023-01-21T05:30:35.280Z,39.60
2023-01-21T05:33:03.490Z,44.63
2023-01-21T05:35:35.404Z,35.33
2023-01-21T05:38:03.559Z,53.42
2023-01-21T05:40:31.608Z,54.65
2023-01-21T05:42:59.543Z,44.47
2023-01-21T05:45:27.644Z,52.28
2023-01-21T05:47:55.629Z,40.47
2023-01-21T05:50:23.741Z,39.60
2023-01-21T05:52:53.165Z,41.80
2023-01-21T05:55:21.141Z,53.88
2023-01-21T05:57:49.199Z,43.95
2023-01-21T06:00:18.276Z,40.90
2023-01-21T06:02:46.557Z,32.47
2023-01-21T06:05:14.586Z,37.42
2023-01-21T06:07:42.646Z,34.53
2023-01-21T06:10:12.570Z,24.83
2023-01-21T06:12:40.685Z,19.77
2023-01-21T06:15:09.565Z,17.48
2023-01-21T06:17:40.800Z,26.65
2023-01-21T06:20:10.440Z,23.20
2023-01-21T06:22:38.529Z,29.00
2023-01-21T06:25:07.669Z,26.05
2023-01-21T06:27:38.370Z,39.35
2023-01-21T06:30:08.456Z,37.92
2023-01-21T06:32:37.367Z,35.45
2023-01-21T06:35:06.137Z,33.30
2023-01-21T06:37:34.808Z,25.58
2023-01-21T06:40:02.885Z,30.10
2023-01-21T06:42:30.857Z,30.60
2023-01-21T06:45:00.517Z,25.33
2023-01-21T06:47:28.855Z,19.20
2023-01-21T06:49:56.828Z,20.98
2023-01-21T06:52:25.016Z,21.90
2023-01-21T06:54:53.308Z,18.15
2023-01-21T06:57:21.584Z,18.80
2023-01-21T06:59:49.647Z,25.45
2023-01-21T07:02:19.100Z,24.27
2023-01-21T07:04:49.071Z,21.75
2023-01-21T07:07:17.090Z,30.17
2023-01-21T07:09:45.163Z,19.92
2023-01-21T07:12:13.344Z,24.38
2023-01-21T07:14:41.480Z,30.35
2023-01-21T07:17:09.621Z,28.73
2023-01-21T07:19:38.977Z,32.55
2023-01-21T07:22:07.132Z,20.00
2023-01-21T07:24:35.391Z,16.27
2023-01-21T07:27:05.255Z,27.85
2023-01-21T07:29:33.187Z,21.38
2023-01-21T07:32:01.243Z,15.10
2023-01-21T07:34:29.291Z,14.50
2023-01-21T07:36:58.645Z,11.77
2023-01-21T07:39:26.930Z,11.95
2023-01-21T07:41:54.985Z,14.27
2023-01-21T07:44:22.996Z,23.13
2023-01-21T07:46:51.030Z,20.52
2023-01-21T07:49:19.268Z,15.20
2023-01-21T07:51:48.403Z,14.20
2023-01-21T07:54:17.768Z,17.27
2023-01-21T07:56:45.818Z,10.43
2023-01-21T07:59:15.072Z,21.58
2023-01-21T08:01:43.214Z,15.52
2023-01-21T08:04:11.272Z,24.42
2023-01-21T08:06:41.292Z,18.10
2023-01-21T08:09:09.703Z,19.63
2023-01-21T08:11:39.048Z,13.43
2023-01-21T08:14:07.184Z,13.48
2023-01-21T08:16:35.269Z,12.45
2023-01-21T08:19:03.327Z,24.05
2023-01-21T08:21:31.372Z,17.75
2023-01-21T08:23:59.430Z,15.32
2023-01-21T08:26:27.631Z,20.20
2023-01-21T08:28:57.224Z,14.82
2023-01-21T08:31:25.346Z,12.63
2023-01-21T08:33:53.371Z,11.55
2023-01-21T08:36:21.532Z,21.42
2023-01-21T08:38:53.303Z,23.50
2023-01-21T08:41:21.378Z,16.05
2023-01-21T08:43:49.375Z,20.60
2023-01-21T08:46:18.744Z,13.40
2023-01-21T08:48:46.720Z,20.17
2023-01-21T08:51:14.730Z,28.77
2023-01-21T08:53:42.751Z,15.55
2023-01-21T08:56:13.031Z,21.10
2023-01-21T08:58:41.790Z,21.55
2023-01-21T09:01:11.431Z,16.30
2023-01-21T09:03:40.852Z,15.88
2023-01-21T09:06:09.667Z,31.83
2023-01-21T09:08:37.825Z,20.58
2023-01-21T09:11:07.062Z,21.67
2023-01-21T09:13:37.436Z,21.00
2023-01-21T09:16:10.638Z,26.92
2023-01-21T09:18:40.282Z,27.08
2023-01-21T09:21:08.699Z,28.10
2023-01-21T09:23:37.628Z,24.67
2023-01-21T09:26:07.108Z,22.83
2023-01-21T09:28:36.820Z,14.07
2023-01-21T09:31:07.682Z,23.67
2023-01-21T09:33:37.556Z,22.10
2023-01-21T09:36:09.616Z,28.10
2023-01-21T09:38:37.638Z,23.80
2023-01-21T09:41:14.261Z,25.80
2023-01-21T09:43:46.856Z,28.85
2023-01-21T09:46:22.393Z,23.50
2023-01-21T09:48:50.963Z,18.95
2023-01-21T09:51:26.886Z,20.88
2023-01-21T09:53:59.003Z,31.55
2023-01-21T09:56:35.401Z,26.30
2023-01-21T09:59:09.278Z,22.83
2023-01-21T10:01:41.269Z,51.75
2023-01-21T10:04:30.355Z,19.15
2023-01-21T10:07:03.631Z,12.40
2023-01-21T10:09:42.897Z,20.65
2023-01-21T10:12:37.540Z,18.73
2023-01-21T10:15:25.206Z,18.70
2023-01-21T10:17:57.704Z,18.80
2023-01-21T10:20:29.926Z,16.10
2023-01-21T10:23:05.156Z,19.08
2023-01-21T10:25:35.007Z,15.77
2023-01-21T10:28:07.360Z,17.13
2023-01-21T10:30:39.441Z,14.45
2023-01-21T10:33:13.495Z,16.30
2023-01-21T10:36:05.022Z,17.35
2023-01-21T10:38:39.860Z,22.92
2023-01-21T10:41:19.291Z,30.15
2023-01-21T10:43:54.872Z,32.17
2023-01-21T10:46:29.756Z,19.67
2023-01-21T10:49:05.725Z,12.05
2023-01-21T10:51:40.338Z,16.17
2023-01-21T10:54:17.076Z,12.35
2023-01-21T10:56:54.277Z,10.27
2023-01-21T10:59:26.886Z,12.40
2023-01-21T11:02:05.886Z,15.35
2023-01-21T11:04:36.800Z,15.00
2023-01-21T11:07:07.547Z,15.52
2023-01-21T11:09:41.132Z,17.45
2023-01-21T11:12:19.176Z,19.75
2023-01-21T11:14:51.633Z,15.52
2023-01-21T11:17:34.612Z,12.48
2023-01-21T11:20:05.777Z,16.50
2023-01-21T11:22:33.903Z,14.52
2023-01-21T11:25:03.544Z,13.85
2023-01-21T11:27:37.876Z,11.68
2023-01-21T11:30:21.099Z,16.48
2023-01-21T11:32:55.526Z,14.60
2023-01-21T11:35:24.337Z,18.35
2023-01-21T11:37:52.496Z,14.90
2023-01-21T11:40:25.717Z,11.77
2023-01-21T11:42:55.923Z,15.25
2023-01-21T11:45:29.394Z,10.95
2023-01-21T11:47:58.074Z,13.35
2023-01-21T11:50:29.731Z,15.25
2023-01-21T11:53:12.274Z,12.38
2023-01-21T11:55:45.963Z,14.05
2023-01-21T11:58:20.572Z,14.20
2023-01-21T12:00:50.794Z,12.38
2023-01-21T12:03:22.135Z,20.20
2023-01-21T12:05:52.776Z,12.15
2023-01-21T12:08:24.349Z,13.90
2023-01-21T12:10:55.915Z,13.05
2023-01-21T12:13:29.772Z,12.27
2023-01-21T12:16:17.956Z,14.63
2023-01-21T12:19:16.527Z,13.35
2023-01-21T12:22:11.056Z,15.20
2023-01-21T12:24:52.328Z,15.77
2023-01-21T12:27:30.356Z,13.05
2023-01-21T12:30:08.711Z,14.57
2023-01-21T12:32:41.509Z,12.60
2023-01-21T12:35:14.143Z,12.27
2023-01-21T12:37:46.925Z,17.95
2023-01-21T12:40:20.102Z,17.30
2023-01-21T12:42:55.144Z,14.50
2023-01-21T12:45:28.672Z,13.38
2023-01-21T12:48:01.420Z,13.40
2023-01-21T12:50:33.102Z,11.48
2023-01-21T12:53:16.758Z,15.30
2023-01-21T12:56:12.301Z,13.00
2023-01-21T12:58:46.210Z,16.58
2023-01-21T13:01:20.375Z,10.48
2023-01-21T13:03:58.782Z,11.15
2023-01-21T13:06:52.310Z,11.50
2023-01-21T13:09:31.747Z,9.57
2023-01-21T13:12:04.341Z,12.80
2023-01-21T13:14:39.822Z,12.65
2023-01-21T13:17:14.606Z,15.90
2023-01-21T13:19:42.695Z,13.60
2023-01-21T13:22:22.061Z,12.05
2023-01-21T13:25:04.828Z,17.88
2023-01-21T13:27:43.136Z,10.52
2023-01-21T13:30:22.883Z,14.43
2023-01-21T13:33:00.775Z,9.85
2023-01-21T13:35:38.789Z,13.63
2023-01-21T13:38:17.086Z,8.98
2023-01-21T13:40:53.589Z,17.83
2023-01-21T13:43:38.853Z,10.90
2023-01-21T13:46:20.749Z,10.57
2023-01-21T13:49:16.286Z,9.88
2023-01-21T13:51:51.321Z,11.95
2023-01-21T13:54:35.971Z,16.55
2023-01-21T13:57:16.607Z,20.83
2023-01-21T13:59:50.548Z,12.80
2023-01-21T14:02:23.678Z,11.77
2023-01-21T14:04:56.687Z,17.17
2023-01-21T14:07:29.328Z,18.70
2023-01-21T14:10:03.313Z,15.52
2023-01-21T14:12:47.507Z,16.27
2023-01-21T14:15:37.655Z,23.30
2023-01-21T14:18:21.977Z,15.00
2023-01-21T14:21:20.920Z,22.42
2023-01-21T14:24:03.868Z,17.20
2023-01-21T14:26:47.079Z,16.35
2023-01-21T14:29:24.050Z,15.30
2023-01-21T14:31:56.417Z,17.58
2023-01-21T14:34:30.817Z,15.70
2023-01-21T14:37:06.709Z,20.15
2023-01-21T14:39:45.221Z,18.67
2023-01-21T14:42:16.278Z,10.77
2023-01-21T14:44:45.778Z,9.38
2023-01-21T14:47:15.909Z,14.75
2023-01-21T14:49:47.238Z,11.07
2023-01-21T14:52:17.419Z,14.70
2023-01-21T14:54:46.932Z,15.00
2023-01-21T14:57:26.395Z,11.75
2023-01-21T15:00:02.582Z,26.50
2023-01-21T15:02:33.028Z,14.68
2023-01-21T15:05:04.329Z,17.10
2023-01-21T15:07:36.560Z,12.77
2023-01-21T15:10:13.938Z,13.27
2023-01-21T15:12:50.268Z,10.13
2023-01-21T15:15:30.970Z,11.15
2023-01-21T15:18:22.719Z,13.77
2023-01-21T15:20:57.803Z,16.60
2023-01-21T15:23:39.036Z,13.32
2023-01-21T15:26:21.214Z,17.48
2023-01-21T15:28:52.027Z,15.23
2023-01-21T15:31:42.647Z,15.50
2023-01-21T15:34:16.745Z,15.13
2023-01-21T15:36:47.580Z,14.00
2023-01-21T15:39:17.645Z,15.35
2023-01-21T15:41:58.820Z,12.27
2023-01-21T15:44:48.579Z,13.90
2023-01-21T15:47:35.568Z,10.15
2023-01-21T15:50:09.067Z,7.22
2023-01-21T15:52:50.075Z,9.60
2023-01-21T15:55:30.197Z,12.25
2023-01-21T15:58:11.276Z,9.38
2023-01-21T16:00:48.187Z,12.20
2023-01-21T16:03:24.605Z,7.43
2023-01-21T16:06:02.283Z,10.82
2023-01-21T16:08:55.693Z,16.75
2023-01-21T16:11:35.105Z,12.80
2023-01-21T16:14:15.201Z,18.38
2023-01-21T16:16:56.135Z,12.77
2023-01-21T16:19:26.520Z,15.85
2023-01-21T16:21:58.654Z,11.85
2023-01-21T16:24:29.982Z,8.20
2023-01-21T16:27:17.736Z,13.85
2023-01-21T16:29:45.912Z,12.18
2023-01-21T16:32:19.208Z,14.43
2023-01-21T16:34:48.172Z,11.98
2023-01-21T16:37:18.375Z,9.88
2023-01-21T16:39:47.868Z,11.93
2023-01-21T16:42:36.177Z,14.25
2023-01-21T16:45:09.767Z,16.90
2023-01-21T16:47:38.189Z,10.75
2023-01-21T16:50:18.916Z,10.52
2023-01-21T16:52:47.336Z,9.02
2023-01-21T16:55:21.813Z,9.15
2023-01-21T16:57:50.947Z,8.25
2023-01-21T17:00:29.365Z,7.78
2023-01-21T17:02:57.695Z,8.25
2023-01-21T17:05:29.526Z,7.18
2023-01-21T17:08:01.796Z,15.60
2023-01-21T17:10:36.296Z,10.18
2023-01-21T17:13:06.689Z,7.75
2023-01-21T17:15:38.634Z,9.48
2023-01-21T17:18:09.643Z,6.90
2023-01-21T17:20:40.540Z,9.82
2023-01-21T17:23:14.896Z,10.57
2023-01-21T17:25:44.860Z,7.55
2023-01-21T17:28:29.146Z,6.85
2023-01-21T17:31:11.025Z,13.15
2023-01-21T17:33:39.686Z,6.85
2023-01-21T17:36:13.218Z,8.70
2023-01-21T17:38:43.212Z,8.18
2023-01-21T17:41:23.655Z,6.90
2023-01-21T17:43:55.552Z,3.90
2023-01-21T17:46:24.285Z,8.50
2023-01-21T17:48:55.590Z,5.75
2023-01-21T17:51:26.700Z,8.32
2023-01-21T17:53:57.864Z,5.32
2023-01-21T17:56:39.099Z,7.25
2023-01-21T17:59:31.513Z,7.25
2023-01-21T18:01:59.645Z,8.05
2023-01-21T18:04:27.799Z,4.35
2023-01-21T18:06:57.020Z,6.60
2023-01-21T18:09:26.037Z,4.88
2023-01-21T18:11:57.338Z,2.63
2023-01-21T18:14:26.758Z,4.68
2023-01-21T18:16:55.666Z,4.50
2023-01-21T18:19:29.801Z,4.55
2023-01-21T18:21:58.325Z,3.75
2023-01-21T18:24:26.635Z,3.60
2023-01-21T18:26:57.584Z,4.15
2023-01-21T18:29:28.732Z,3.67
2023-01-21T18:31:57.131Z,3.47
2023-01-21T18:34:26.376Z,3.72
2023-01-21T18:36:56.193Z,7.03
2023-01-21T18:39:25.076Z,5.95
2023-01-21T18:41:53.110Z,17.58
2023-01-21T18:44:22.548Z,4.63
2023-01-21T18:46:51.491Z,2.53
2023-01-21T18:49:21.386Z,7.07
2023-01-21T18:51:49.808Z,3.05
2023-01-21T18:54:19.191Z,4.25
2023-01-21T18:56:47.948Z,4.18
2023-01-21T18:59:17.759Z,2.50
2023-01-21T19:01:47.363Z,3.70
2023-01-21T19:04:18.328Z,3.88
2023-01-21T19:06:47.598Z,3.47
2023-01-21T19:09:21.221Z,3.55
2023-01-21T19:11:49.433Z,3.63
2023-01-21T19:14:17.467Z,6.85
2023-01-21T19:16:47.702Z,4.22
2023-01-21T19:19:19.116Z,4.85
2023-01-21T19:21:47.263Z,5.03
2023-01-21T19:24:15.292Z,7.82
2023-01-21T19:26:43.552Z,4.78
2023-01-21T19:29:15.705Z,4.25
2023-01-21T19:31:43.864Z,3.70
2023-01-21T19:34:13.284Z,5.13
2023-01-21T19:36:41.637Z,7.03
2023-01-21T19:39:16.676Z,6.65
2023-01-21T19:41:44.708Z,4.45
2023-01-21T19:44:13.117Z,3.13
2023-01-21T19:46:41.228Z,3.17
2023-01-21T19:49:15.533Z,2.17
2023-01-21T19:51:44.394Z,2.45
2023-01-21T19:54:12.456Z,1.48
2023-01-21T19:56:40.748Z,3.30
2023-01-21T19:59:12.375Z,1.70
2023-01-21T20:01:40.557Z,0.93
2023-01-21T20:04:09.571Z,3.25
2023-01-21T20:06:41.892Z,1.27
2023-01-21T20:09:14.818Z,1.13
2023-01-21T20:11:43.088Z,1.70
2023-01-21T20:14:11.179Z,1.45
2023-01-21T20:16:46.113Z,1.80
2023-01-21T20:19:16.982Z,2.33
2023-01-21T20:22:00.408Z,1.63
2023-01-21T20:24:30.326Z,1.98
2023-01-21T20:26:58.761Z,1.80
2023-01-21T20:29:27.447Z,1.92
2023-01-21T20:31:55.552Z,1.55
2023-01-21T20:34:23.595Z,2.28
2023-01-21T20:36:53.697Z,2.00
2023-01-21T20:39:21.772Z,1.77
2023-01-21T20:41:49.848Z,1.40
2023-01-21T20:44:17.937Z,1.50
2023-01-21T20:46:46.465Z,1.60
2023-01-21T20:49:14.426Z,4.45
2023-01-21T20:51:42.485Z,2.70
2023-01-21T20:54:12.817Z,1.67
2023-01-21T20:56:40.798Z,1.70
2023-01-21T20:59:10.609Z,1.95
2023-01-21T21:01:39.575Z,2.55
2023-01-21T21:04:07.591Z,1.80
2023-01-21T21:06:35.565Z,1.50
2023-01-21T21:09:03.876Z,2.45
2023-01-21T21:11:33.188Z,1.55
2023-01-21T21:14:01.951Z,2.83
2023-01-21T21:16:32.042Z,1.13
2023-01-21T21:19:00.672Z,2.30
2023-01-21T21:21:28.817Z,1.77
2023-01-21T21:23:56.869Z,4.40
2023-01-21T21:26:26.868Z,1.45
2023-01-21T21:28:57.440Z,3.08
2023-01-21T21:31:27.557Z,3.70
2023-01-21T21:33:55.580Z,2.00
2023-01-21T21:36:24.614Z,3.90
2023-01-21T21:38:55.633Z,2.63
2023-01-21T21:41:43.428Z,1.80
2023-01-21T21:44:14.146Z,3.83
2023-01-21T21:46:59.696Z,2.45
2023-01-21T21:49:28.501Z,1.90
2023-01-21T21:51:56.922Z,2.67
2023-01-21T21:54:24.996Z,2.25
2023-01-21T21:56:53.022Z,2.00
2023-01-21T21:59:22.375Z,1.80
2023-01-21T22:01:50.492Z,2.33
2023-01-21T22:04:18.645Z,2.28
2023-01-21T22:06:46.773Z,1.67
2023-01-21T22:09:14.915Z,2.25
2023-01-21T22:11:43.422Z,1.75
2023-01-21T22:14:11.553Z,1.73
2023-01-21T22:16:41.123Z,2.50
2023-01-21T22:19:09.310Z,2.38
2023-01-21T22:21:37.317Z,2.05
2023-01-21T22:24:06.864Z,2.60
2023-01-21T22:26:36.380Z,2.47
2023-01-21T22:29:05.568Z,2.88
2023-01-21T22:31:34.803Z,2.05
2023-01-21T22:34:04.371Z,2.42
2023-01-21T22:36:32.504Z,4.35
2023-01-21T22:39:01.009Z,3.92
2023-01-21T22:41:29.439Z,2.38
2023-01-21T22:43:57.762Z,2.75
2023-01-21T22:46:29.353Z,2.45
2023-01-21T22:48:57.623Z,3.22
2023-01-21T22:51:27.500Z,3.35
2023-01-21T22:53:56.007Z,3.03
2023-01-21T22:56:49.577Z,3.35
2023-01-21T22:59:13.815Z,2.72
2023-01-21T23:01:41.876Z,2.85
2023-01-21T23:04:10.236Z,2.88
2023-01-21T23:06:39.774Z,2.88
2023-01-21T23:09:09.682Z,3.15
2023-01-21T23:11:40.110Z,3.03
2023-01-21T23:14:09.444Z,4.00
2023-01-21T23:16:37.549Z,3.83
2023-01-21T23:19:05.739Z,3.22
2023-01-21T23:21:33.818Z,2.83
2023-01-21T23:24:03.220Z,3.80
2023-01-21T23:26:31.735Z,2.58
2023-01-21T23:29:00.115Z,9.25
2023-01-21T23:31:28.300Z,3.75
2023-01-21T23:33:57.261Z,2.95
2023-01-21T23:36:25.541Z,3.30
2023-01-21T23:38:53.580Z,3.83
2023-01-21T23:41:23.000Z,3.03
2023-01-21T23:43:51.122Z,2.20
2023-01-21T23:46:20.459Z,2.13
2023-01-21T23:48:48.832Z,2.72
2023-01-21T23:51:18.422Z,3.50
2023-01-21T23:53:47.687Z,2.05
2023-01-21T23:56:18.155Z,3.10
2023-01-21T23:58:47.851Z,3.17
